Time;durP1;ratioP1;P1;durP2;ratioP2;P2;SDS_P1;SDS_P2;PMS_P1;PMS_P2;Temp;Humidity;BMP_temperature;BMP_pressure;BME280_temperature;BME280_humidity;BME280_pressure;Samples;Min_cycle;Max_cycle;Signal;HPM_P1;HPM_P2
2022/08/28 00:01:38;;;;;;;35.70;33.00;;;18.90;94.60;;;;;;5009968;28;20491;-69
2022/08/28 00:04:05;;;;;;;35.90;33.30;;;19.00;94.10;;;;;;5011050;28;20459;-69
2022/08/28 00:06:32;;;;;;;37.10;34.00;;;18.90;94.00;;;;;;5008689;28;20463;-69
2022/08/28 00:08:59;;;;;;;36.77;33.73;;;18.90;94.10;;;;;;5005554;28;20463;-69
2022/08/28 00:11:27;;;;;;;35.10;32.40;;;18.90;94.10;;;;;;5007873;28;20585;-69
2022/08/28 00:13:54;;;;;;;35.27;32.67;;;18.90;94.30;;;;;;5011187;28;20467;-67
2022/08/28 00:16:21;;;;;;;35.10;32.50;;;19.00;94.20;;;;;;5010416;28;20829;-67
2022/08/28 00:18:48;;;;;;;36.07;33.27;;;19.00;94.20;;;;;;5015347;28;21075;-67
2022/08/28 00:21:15;;;;;;;35.50;32.93;;;19.10;94.10;;;;;;5007559;28;20488;-68
2022/08/28 00:23:42;;;;;;;35.93;33.33;;;19.10;94.10;;;;;;5011857;28;20478;-67
2022/08/28 00:26:09;;;;;;;35.17;32.67;;;19.10;93.90;;;;;;5007542;28;20470;-67
2022/08/28 00:28:37;;;;;;;34.90;32.30;;;19.10;93.80;;;;;;5011301;28;20463;-69
2022/08/28 00:31:04;;;;;;;34.80;32.10;;;19.10;93.70;;;;;;5014532;28;20529;-69
2022/08/28 00:33:34;;;;;;;35.17;32.47;;;19.20;93.50;;;;;;5011984;28;20472;-69
2022/08/28 00:36:02;;;;;;;35.10;32.60;;;19.10;93.60;;;;;;5012772;28;20466;-69
2022/08/28 00:38:30;;;;;;;34.97;32.47;;;19.10;93.60;;;;;;5009171;28;20488;-69
2022/08/28 00:41:00;;;;;;;34.53;32.27;;;19.00;93.90;;;;;;5010246;28;20570;-69
2022/08/28 00:43:36;;;;;;;33.67;31.37;;;19.00;94.00;;;;;;5497601;23;20547;-67
2022/08/28 00:46:08;;;;;;;37.37;34.33;;;19.00;93.90;;;;;;5002498;28;20466;-67
2022/08/28 00:48:36;;;;;;;35.43;32.93;;;19.10;93.90;;;;;;5002412;28;20467;-67
2022/08/28 00:53:49;;;;;;;34.30;31.80;;;19.10;93.60;;;;;;4987691;28;20480;-69
2022/08/28 00:56:18;;;;;;;37.37;34.70;;;19.10;93.50;;;;;;4989230;28;20978;-69
2022/08/28 00:58:47;;;;;;;35.43;32.70;;;19.20;93.60;;;;;;4987629;28;20484;-69
2022/08/28 01:01:16;;;;;;;35.37;32.77;;;19.20;93.70;;;;;;4990346;28;20855;-69
2022/08/28 01:03:44;;;;;;;36.07;33.47;;;19.10;93.80;;;;;;4986290;28;20553;-69
2022/08/28 01:06:13;;;;;;;33.17;31.07;;;19.10;93.70;;;;;;4988733;28;20456;-71
2022/08/28 01:08:42;;;;;;;35.10;32.47;;;19.10;93.80;;;;;;4990050;28;20536;-70
2022/08/28 01:11:11;;;;;;;35.53;32.93;;;19.20;93.70;;;;;;4981866;28;20485;-67
2022/08/28 01:13:41;;;;;;;34.83;32.20;;;19.20;93.70;;;;;;4990080;28;20461;-67
2022/08/28 01:16:08;;;;;;;35.40;32.70;;;19.20;93.70;;;;;;4987110;28;20843;-67
2022/08/28 01:18:37;;;;;;;34.17;31.77;;;19.20;93.60;;;;;;4988521;28;20483;-67
2022/08/28 01:21:13;;;;;;;34.10;31.70;;;19.20;93.50;;;;;;4971469;28;20484;-67
2022/08/28 01:23:50;;;;;;;34.20;31.70;;;19.20;93.80;;;;;;4982964;28;20582;-67
2022/08/28 01:26:17;;;;;;;35.13;32.37;;;19.20;93.80;;;;;;4986852;28;20476;-67
2022/08/28 01:28:44;;;;;;;34.23;31.57;;;19.20;93.60;;;;;;4985747;28;20459;-67
2022/08/28 01:31:12;;;;;;;36.20;33.50;;;19.10;93.90;;;;;;4989656;28;20470;-67
2022/08/28 01:33:39;;;;;;;36.27;33.70;;;19.10;94.10;;;;;;4990006;28;20998;-67
2022/08/28 01:36:07;;;;;;;36.83;33.87;;;19.10;94.10;;;;;;4984608;28;20820;-67
2022/08/28 01:38:34;;;;;;;36.30;33.70;;;19.10;94.00;;;;;;4990711;28;20496;-67
2022/08/28 01:41:02;;;;;;;35.87;33.07;;;19.10;94.00;;;;;;4984793;28;20583;-67
2022/08/28 01:43:30;;;;;;;36.90;34.00;;;19.00;94.30;;;;;;4982058;28;20473;-67
2022/08/28 01:46:00;;;;;;;34.83;32.13;;;19.00;94.40;;;;;;4987602;28;20480;-67
2022/08/28 01:48:29;;;;;;;34.20;31.53;;;18.90;94.60;;;;;;4991246;28;20462;-69
2022/08/28 01:50:56;;;;;;;33.63;31.27;;;18.90;94.90;;;;;;4986892;28;20480;-69
2022/08/28 01:53:28;;;;;;;36.23;33.47;;;18.80;95.20;;;;;;4989950;28;20468;-69
2022/08/28 01:55:56;;;;;;;34.27;31.57;;;18.90;95.20;;;;;;4979754;28;20492;-69
2022/08/28 01:58:25;;;;;;;36.33;33.57;;;18.90;95.10;;;;;;4991023;28;20479;-69
2022/08/28 02:00:52;;;;;;;33.13;30.80;;;18.90;95.00;;;;;;4986225;28;20487;-69
2022/08/28 02:03:20;;;;;;;31.63;29.53;;;18.90;95.10;;;;;;4989320;28;20979;-69
2022/08/28 02:05:47;;;;;;;44.33;41.53;;;19.00;94.90;;;;;;4982683;28;20467;-69
2022/08/28 02:08:15;;;;;;;34.30;31.80;;;19.10;94.70;;;;;;4989598;28;20453;-69
2022/08/28 02:10:43;;;;;;;33.63;31.40;;;19.10;94.40;;;;;;4986382;28;20484;-69
2022/08/28 02:13:11;;;;;;;32.83;30.27;;;19.10;94.30;;;;;;4989821;28;20479;-69
2022/08/28 02:15:41;;;;;;;34.10;31.30;;;19.10;94.30;;;;;;4987045;28;20463;-70
2022/08/28 02:18:08;;;;;;;34.63;32.13;;;19.20;94.30;;;;;;4989383;28;20550;-71
2022/08/28 02:20:35;;;;;;;33.10;30.50;;;19.20;94.00;;;;;;4985803;28;20911;-69
2022/08/28 02:23:02;;;;;;;31.60;29.20;;;19.20;94.10;;;;;;4992076;28;20477;-69
2022/08/28 02:25:29;;;;;;;33.63;31.33;;;19.20;94.00;;;;;;4986796;28;20539;-70
2022/08/28 02:27:57;;;;;;;33.13;30.73;;;19.30;94.00;;;;;;4990117;28;20477;-69
2022/08/28 02:30:24;;;;;;;32.93;30.63;;;19.30;94.00;;;;;;4980444;28;20557;-69
2022/08/28 02:32:52;;;;;;;33.53;31.00;;;19.30;94.00;;;;;;4989757;28;20495;-69
2022/08/28 02:35:20;;;;;;;34.00;31.40;;;19.30;94.00;;;;;;4986911;28;20461;-69
2022/08/28 02:37:48;;;;;;;49.27;46.20;;;19.40;93.90;;;;;;4988878;28;20465;-67
2022/08/28 02:40:16;;;;;;;34.53;31.83;;;19.40;93.90;;;;;;4986876;28;20474;-68
2022/08/28 02:42:44;;;;;;;35.00;32.50;;;19.40;93.70;;;;;;4988183;28;21053;-67
2022/08/28 02:45:13;;;;;;;34.97;32.53;;;19.50;93.60;;;;;;4986079;28;20951;-67
2022/08/28 02:47:40;;;;;;;34.50;32.10;;;19.50;93.50;;;;;;4988057;28;20474;-67
2022/08/28 02:50:11;;;;;;;34.07;31.43;;;19.50;93.70;;;;;;4987295;28;20496;-67
2022/08/28 02:52:38;;;;;;;37.13;34.20;;;19.50;93.70;;;;;;4985017;28;20559;-67
2022/08/28 02:55:08;;;;;;;34.10;31.33;;;19.50;93.60;;;;;;4986865;28;20469;-67
2022/08/28 02:57:35;;;;;;;35.67;32.97;;;19.60;93.60;;;;;;4988364;28;20472;-68
2022/08/28 03:00:02;;;;;;;35.80;32.80;;;19.60;93.60;;;;;;4986146;28;20490;-67
2022/08/28 03:02:29;;;;;;;40.80;37.67;;;19.70;93.60;;;;;;4985012;28;20484;-67
2022/08/28 03:04:56;;;;;;;34.67;32.03;;;19.70;93.60;;;;;;4986372;28;20497;-67
2022/08/28 03:07:24;;;;;;;34.67;32.17;;;19.70;93.20;;;;;;4988753;28;20463;-67
2022/08/28 03:09:50;;;;;;;38.90;35.90;;;19.70;93.20;;;;;;4972819;28;20470;-67
2022/08/28 03:12:22;;;;;;;38.20;35.20;;;19.70;93.40;;;;;;4987781;28;20474;-67
2022/08/28 03:14:49;;;;;;;36.50;33.60;;;19.80;93.40;;;;;;4987521;28;20556;-67
2022/08/28 03:17:16;;;;;;;37.80;34.83;;;19.70;94.10;;;;;;4988825;28;20840;-67
2022/08/28 03:19:43;;;;;;;39.27;35.97;;;19.70;94.30;;;;;;4982173;28;20481;-67
2022/08/28 03:22:10;;;;;;;41.57;38.03;;;19.80;94.10;;;;;;4984190;28;20560;-67
2022/08/28 03:24:38;;;;;;;39.53;36.33;;;19.70;94.30;;;;;;4986878;28;20458;-67
2022/08/28 03:27:05;;;;;;;36.03;33.03;;;19.60;94.80;;;;;;4987574;28;20488;-68
2022/08/28 03:29:32;;;;;;;33.70;31.10;;;19.60;94.80;;;;;;4979688;28;20464;-67
2022/08/28 03:31:59;;;;;;;35.27;32.77;;;19.60;94.60;;;;;;4987410;28;20485;-67
2022/08/28 03:34:26;;;;;;;35.27;32.73;;;19.70;94.30;;;;;;4987307;28;20457;-67
2022/08/28 03:36:53;;;;;;;35.27;32.57;;;19.70;94.10;;;;;;4986766;28;20459;-67
2022/08/28 03:39:19;;;;;;;32.83;30.63;;;19.70;93.90;;;;;;4988136;28;21077;-67
2022/08/28 03:41:48;;;;;;;35.10;32.47;;;19.70;93.60;;;;;;4986158;28;20501;-67
2022/08/28 03:44:15;;;;;;;35.17;32.57;;;19.70;93.40;;;;;;4986356;28;20824;-67
2022/08/28 03:46:42;;;;;;;38.60;35.40;;;19.70;93.60;;;;;;4983681;28;20995;-67
2022/08/28 03:49:09;;;;;;;38.70;35.10;;;19.90;93.40;;;;;;4989371;28;20470;-67
2022/08/28 03:51:36;;;;;;;40.53;37.30;;;20.00;93.20;;;;;;4986051;28;20856;-67
2022/08/28 03:54:04;;;;;;;36.70;33.50;;;19.90;93.40;;;;;;4987787;28;20830;-67
2022/08/28 03:56:32;;;;;;;37.13;34.30;;;19.70;94.10;;;;;;4988509;28;20461;-67
2022/08/28 03:59:03;;;;;;;38.03;34.67;;;19.80;94.30;;;;;;4987062;28;20474;-68
2022/08/28 04:01:31;;;;;;;38.00;35.00;;;19.80;93.90;;;;;;4986527;28;21064;-67
2022/08/28 04:03:58;;;;;;;39.87;36.33;;;19.70;94.40;;;;;;4986772;28;20961;-67
2022/08/28 04:06:26;;;;;;;51.63;48.13;;;19.70;94.40;;;;;;4984828;28;20458;-67
2022/08/28 04:08:53;;;;;;;39.53;36.33;;;19.70;94.70;;;;;;4987712;28;20489;-67
2022/08/28 04:11:20;;;;;;;37.07;34.00;;;19.80;94.40;;;;;;4986252;28;20533;-67
2022/08/28 04:13:47;;;;;;;38.30;35.00;;;19.80;94.10;;;;;;4987689;28;20453;-67
2022/08/28 04:16:17;;;;;;;36.13;33.30;;;19.80;94.10;;;;;;4987134;28;20454;-68
2022/08/28 04:18:45;;;;;;;36.10;33.10;;;19.80;93.90;;;;;;4988614;28;20485;-67
2022/08/28 04:21:15;;;;;;;39.57;36.17;;;19.80;93.90;;;;;;4985021;28;20573;-67
2022/08/28 04:23:44;;;;;;;46.10;42.67;;;19.80;93.90;;;;;;4986863;28;20475;-67
2022/08/28 04:26:13;;;;;;;40.17;36.60;;;19.80;93.90;;;;;;4985317;28;20541;-68
2022/08/28 04:28:40;;;;;;;39.30;35.87;;;19.90;93.90;;;;;;4988358;28;20474;-67
2022/08/28 04:31:08;;;;;;;37.67;34.43;;;19.90;93.50;;;;;;4982371;28;20481;-67
2022/08/28 04:33:37;;;;;;;38.00;34.97;;;19.90;93.60;;;;;;4987490;28;20496;-71
2022/08/28 04:36:06;;;;;;;44.67;41.37;;;19.80;93.60;;;;;;4987747;28;20465;-69
2022/08/28 04:38:33;;;;;;;38.73;35.47;;;19.70;93.90;;;;;;4985432;28;20455;-69
2022/08/28 04:41:03;;;;;;;38.37;35.50;;;19.70;93.90;;;;;;4979050;28;20564;-69
2022/08/28 04:43:30;;;;;;;44.83;41.33;;;19.80;93.60;;;;;;4985673;28;20499;-69
2022/08/28 04:45:57;;;;;;;37.73;34.47;;;19.80;93.40;;;;;;4986593;28;20504;-69
2022/08/28 04:48:24;;;;;;;37.53;34.53;;;19.80;93.40;;;;;;4992166;28;20630;-69
2022/08/28 04:50:52;;;;;;;38.47;35.23;;;19.80;93.60;;;;;;4991629;28;20458;-68
2022/08/28 04:53:20;;;;;;;39.20;35.80;;;19.70;93.80;;;;;;4989802;28;20471;-69
2022/08/28 04:55:50;;;;;;;36.00;33.20;;;19.80;93.60;;;;;;4984214;28;20465;-69
2022/08/28 04:58:18;;;;;;;37.73;34.40;;;20.00;92.90;;;;;;4988695;28;20497;-69
2022/08/28 05:00:47;;;;;;;37.03;33.80;;;20.00;92.90;;;;;;4989734;28;20485;-69
2022/08/28 05:03:16;;;;;;;38.77;35.67;;;20.10;92.40;;;;;;4982349;28;20588;-69
2022/08/28 05:05:44;;;;;;;38.10;34.90;;;20.10;92.00;;;;;;4990181;28;21179;-69
2022/08/28 05:08:13;;;;;;;38.23;34.90;;;20.20;91.30;;;;;;4983061;28;20474;-67
2022/08/28 05:10:41;;;;;;;37.97;34.70;;;20.20;91.40;;;;;;4988589;28;20474;-67
2022/08/28 05:13:09;;;;;;;36.07;33.07;;;20.00;92.00;;;;;;4987240;28;20536;-67
2022/08/28 05:15:38;;;;;;;34.57;31.70;;;20.00;91.80;;;;;;4987732;28;20463;-67
2022/08/28 05:18:05;;;;;;;36.20;33.10;;;20.10;91.40;;;;;;4990181;28;20458;-67
2022/08/28 05:20:36;;;;;;;37.37;34.00;;;20.00;91.70;;;;;;4988284;28;20577;-67
2022/08/28 05:23:03;;;;;;;40.80;37.57;;;20.00;91.70;;;;;;4989404;28;20466;-67
2022/08/28 05:25:34;;;;;;;35.97;33.20;;;19.80;92.40;;;;;;4991056;28;20473;-68
2022/08/28 05:28:01;;;;;;;36.20;33.03;;;19.80;92.50;;;;;;4987824;28;20462;-67
2022/08/28 05:30:28;;;;;;;35.13;32.33;;;19.80;92.90;;;;;;4985784;28;20457;-67
2022/08/28 05:32:55;;;;;;;34.73;31.93;;;19.80;92.60;;;;;;4987910;28;20482;-68
2022/08/28 05:35:23;;;;;;;36.40;33.37;;;19.80;92.80;;;;;;4988778;28;20467;-73
2022/08/28 05:37:53;;;;;;;59.27;55.43;;;19.90;92.40;;;;;;4991445;28;20458;-67
2022/08/28 05:40:21;;;;;;;39.10;36.10;;;19.90;92.60;;;;;;4991115;28;20481;-68
2022/08/28 05:42:49;;;;;;;37.10;33.70;;;19.90;92.70;;;;;;4985870;28;20562;-67
2022/08/28 05:45:16;;;;;;;34.90;32.20;;;20.00;92.00;;;;;;4982956;28;20473;-68
2022/08/28 05:47:43;;;;;;;37.87;34.50;;;20.10;91.50;;;;;;4988022;28;20470;-69
2022/08/28 05:50:12;;;;;;;36.20;33.00;;;20.10;91.30;;;;;;4988420;28;20550;-69
2022/08/28 05:52:39;;;;;;;39.13;35.97;;;20.20;91.30;;;;;;4989269;28;20597;-70
2022/08/28 05:55:07;;;;;;;35.50;32.50;;;20.20;91.20;;;;;;4981302;28;20473;-69
2022/08/28 05:57:34;;;;;;;36.00;32.70;;;20.20;91.20;;;;;;4986354;28;20871;-69
2022/08/28 06:00:04;;;;;;;37.13;33.80;;;20.20;91.10;;;;;;4987407;28;20500;-69
2022/08/28 06:02:31;;;;;;;37.13;34.00;;;20.10;91.70;;;;;;4988829;28;20488;-70
2022/08/28 06:04:58;;;;;;;35.77;33.07;;;20.10;91.40;;;;;;4987935;28;20801;-69
2022/08/28 06:07:25;;;;;;;36.10;33.20;;;20.10;91.50;;;;;;4992005;28;20465;-69
2022/08/28 06:09:52;;;;;;;36.60;33.70;;;20.10;91.50;;;;;;4986070;28;20454;-70
2022/08/28 06:12:19;;;;;;;39.90;36.90;;;20.10;91.70;;;;;;4987444;28;20489;-69
2022/08/28 06:14:46;;;;;;;37.37;34.57;;;20.10;91.60;;;;;;4983347;28;20473;-69
2022/08/28 06:17:14;;;;;;;37.97;35.30;;;20.20;91.10;;;;;;4988709;28;20497;-69
2022/08/28 06:19:41;;;;;;;36.30;33.17;;;20.10;91.40;;;;;;4987988;28;21359;-69
2022/08/28 06:22:10;;;;;;;35.73;32.63;;;20.00;91.40;;;;;;4987868;28;20501;-69
2022/08/28 06:24:38;;;;;;;36.00;33.43;;;20.20;91.30;;;;;;4986985;28;20454;-69
2022/08/28 06:27:05;;;;;;;36.50;33.70;;;20.40;89.80;;;;;;4983424;28;20458;-71
2022/08/28 06:29:32;;;;;;;39.07;36.07;;;20.40;89.60;;;;;;4978486;28;20458;-69
2022/08/28 06:32:03;;;;;;;46.30;43.07;;;20.20;90.30;;;;;;4987452;28;20490;-72
2022/08/28 06:34:31;;;;;;;34.93;32.17;;;20.10;90.30;;;;;;4985295;28;20454;-69
2022/08/28 06:36:58;;;;;;;36.17;32.90;;;20.20;90.10;;;;;;4978776;28;20463;-69
2022/08/28 06:39:24;;;;;;;34.97;32.37;;;20.20;90.00;;;;;;4986511;28;20462;-69
2022/08/28 06:41:52;;;;;;;34.30;31.80;;;20.20;89.80;;;;;;4993667;28;21369;-69
2022/08/28 06:44:20;;;;;;;54.27;51.13;;;20.30;89.50;;;;;;4986343;28;20497;-69
2022/08/28 06:46:49;;;;;;;33.07;30.60;;;20.60;87.60;;;;;;4989133;28;20576;-69
2022/08/28 06:49:15;;;;;;;35.07;32.37;;;20.70;87.40;;;;;;4988187;28;20458;-69
2022/08/28 06:51:44;;;;;;;32.70;30.40;;;20.70;87.50;;;;;;4991387;28;20964;-69
2022/08/28 06:54:13;;;;;;;37.73;35.13;;;20.70;87.30;;;;;;4980980;28;20454;-69
2022/08/28 06:56:40;;;;;;;33.50;31.10;;;20.80;87.10;;;;;;4984076;28;20473;-70
2022/08/28 06:59:07;;;;;;;32.67;30.57;;;20.70;86.90;;;;;;4985400;28;20986;-70
2022/08/28 07:01:35;;;;;;;35.00;32.10;;;20.90;86.50;;;;;;4981586;28;20492;-69
2022/08/28 07:04:04;;;;;;;37.73;35.33;;;20.80;86.60;;;;;;4984148;28;20528;-71
2022/08/28 07:06:33;;;;;;;34.07;31.70;;;21.00;86.20;;;;;;4986430;28;20473;-73
2022/08/28 07:09:02;;;;;;;34.63;32.40;;;21.10;86.00;;;;;;4988870;28;20462;-69
2022/08/28 07:11:31;;;;;;;36.50;34.07;;;21.00;85.90;;;;;;4988637;28;21301;-70
2022/08/28 07:13:59;;;;;;;41.57;39.00;;;21.20;85.60;;;;;;4990744;28;20454;-70
2022/08/28 07:16:30;;;;;;;34.20;31.90;;;21.40;84.60;;;;;;4980605;28;20454;-70
2022/08/28 07:18:58;;;;;;;49.37;46.13;;;21.40;84.30;;;;;;4978877;28;20537;-69
2022/08/28 07:21:26;;;;;;;38.73;36.17;;;21.40;84.30;;;;;;4980691;28;20567;-72
2022/08/28 07:23:53;;;;;;;34.70;32.37;;;21.30;84.50;;;;;;4986913;28;21001;-69
2022/08/28 07:26:24;;;;;;;35.40;32.90;;;21.40;84.50;;;;;;4984565;28;20465;-70
2022/08/28 07:28:53;;;;;;;39.63;36.80;;;21.60;83.60;;;;;;4982863;28;20517;-67
2022/08/28 07:31:22;;;;;;;35.90;33.50;;;21.60;83.50;;;;;;4979360;28;20496;-67
2022/08/28 07:33:49;;;;;;;35.03;32.70;;;21.60;83.30;;;;;;4986631;28;20461;-68
2022/08/28 07:36:20;;;;;;;35.30;32.90;;;21.80;82.70;;;;;;4980433;28;20454;-69
2022/08/28 07:38:47;;;;;;;35.43;33.10;;;21.90;82.20;;;;;;4988262;28;20537;-69
2022/08/28 07:41:16;;;;;;;39.07;36.40;;;21.90;81.60;;;;;;4984843;28;20532;-69
2022/08/28 07:46:30;;;;;;;37.03;34.53;;;21.70;82.50;;;;;;4985424;28;20453;-69
2022/08/28 07:48:58;;;;;;;39.70;36.67;;;21.70;82.90;;;;;;4988210;28;21070;-69
2022/08/28 07:51:26;;;;;;;38.03;35.03;;;21.90;82.20;;;;;;4989371;28;20561;-69
2022/08/28 07:53:56;;;;;;;46.53;43.37;;;21.80;82.20;;;;;;4985991;28;20546;-70
2022/08/28 07:56:23;;;;;;;37.10;34.40;;;21.80;82.50;;;;;;4978250;28;20461;-69
2022/08/28 07:58:51;;;;;;;37.60;35.10;;;21.90;82.10;;;;;;4983879;28;20479;-67
2022/08/28 08:01:19;;;;;;;36.23;33.60;;;21.80;82.00;;;;;;4981710;28;20992;-72
2022/08/28 08:03:46;;;;;;;52.57;48.80;;;21.80;82.30;;;;;;4986839;28;20454;-72
2022/08/28 08:06:13;;;;;;;39.27;36.63;;;21.80;82.70;;;;;;4982597;28;20478;-68
2022/08/28 08:08:41;;;;;;;46.00;43.13;;;21.70;82.90;;;;;;4983748;28;20494;-67
2022/08/28 08:11:10;;;;;;;42.80;39.40;;;21.90;82.50;;;;;;4980806;28;20486;-67
2022/08/28 08:13:38;;;;;;;50.97;47.97;;;21.80;82.60;;;;;;4992913;28;20462;-67
2022/08/28 08:16:09;;;;;;;34.50;32.30;;;21.90;82.60;;;;;;4984085;28;20465;-67
2022/08/28 08:18:37;;;;;;;39.33;36.50;;;21.90;82.60;;;;;;4985546;28;20490;-67
2022/08/28 08:21:06;;;;;;;34.83;32.53;;;22.10;81.70;;;;;;4985082;28;20486;-67
2022/08/28 08:23:34;;;;;;;66.03;62.33;;;22.30;81.40;;;;;;4985719;28;20467;-67
2022/08/28 08:26:05;;;;;;;43.77;41.10;;;22.30;81.10;;;;;;4981651;28;20557;-67
2022/08/28 08:28:33;;;;;;;44.17;41.23;;;22.60;80.30;;;;;;4988740;28;20970;-67
2022/08/28 08:31:08;;;;;;;42.27;39.37;;;22.60;79.80;;;;;;4986348;28;21222;-67
2022/08/28 08:33:37;;;;;;;56.23;52.97;;;22.50;80.00;;;;;;4990298;28;20456;-67
2022/08/28 08:36:05;;;;;;;40.13;37.43;;;22.40;80.70;;;;;;4980138;28;20477;-67
2022/08/28 08:38:33;;;;;;;40.67;37.60;;;22.40;81.40;;;;;;4988843;28;20484;-67
2022/08/28 08:41:04;;;;;;;53.37;50.27;;;22.50;80.50;;;;;;4985292;28;20848;-67
2022/08/28 08:43:47;;;;;;;41.73;38.90;;;22.60;79.70;;;;;;4991502;28;20465;-67
2022/08/28 08:46:15;;;;;;;39.73;37.17;;;22.50;80.10;;;;;;4985133;28;20476;-67
2022/08/28 08:48:44;;;;;;;37.43;34.83;;;22.40;80.60;;;;;;4989261;28;20969;-69
2022/08/28 08:51:19;;;;;;;41.53;38.67;;;22.50;80.30;;;;;;4982654;28;20562;-69
2022/08/28 08:53:54;;;;;;;46.33;43.23;;;22.60;80.30;;;;;;4992720;28;20935;-69
2022/08/28 08:56:22;;;;;;;41.10;38.40;;;22.60;80.10;;;;;;4988860;28;20481;-69
2022/08/28 08:58:51;;;;;;;36.80;34.30;;;22.70;79.70;;;;;;4988367;28;20453;-69
2022/08/28 09:01:26;;;;;;;36.47;33.83;;;22.70;79.70;;;;;;4980307;28;21036;-68
2022/08/28 09:04:00;;;;;;;43.90;41.30;;;22.80;79.40;;;;;;4987573;28;20564;-67
2022/08/28 09:06:35;;;;;;;43.43;40.37;;;23.10;78.50;;;;;;4989435;28;20786;-67
2022/08/28 09:09:06;;;;;;;53.33;50.20;;;23.40;77.50;;;;;;4984996;28;20471;-67
2022/08/28 09:11:52;;;;;;;56.40;52.90;;;23.50;76.60;;;;;;4985990;28;20485;-67
2022/08/28 09:14:24;;;;;;;43.83;41.03;;;23.80;75.70;;;;;;4976773;28;20587;-67
2022/08/28 09:16:59;;;;;;;40.63;38.13;;;23.90;75.50;;;;;;4981277;28;20512;-68
2022/08/28 09:19:26;;;;;;;48.07;45.20;;;24.20;74.90;;;;;;4985466;28;20820;-69
2022/08/28 09:21:53;;;;;;;40.60;38.20;;;24.40;74.00;;;;;;4979977;28;21014;-68
2022/08/28 09:24:23;;;;;;;39.70;37.10;;;24.70;72.60;;;;;;4986395;28;20476;-67
2022/08/28 09:26:55;;;;;;;41.83;39.17;;;24.70;72.40;;;;;;4989323;28;20468;-67
2022/08/28 09:29:27;;;;;;;42.10;39.60;;;24.90;72.50;;;;;;4986494;28;20758;-67
2022/08/28 09:31:54;;;;;;;48.73;45.83;;;25.20;72.00;;;;;;4981433;28;20469;-67
2022/08/28 09:34:29;;;;;;;54.10;51.10;;;25.50;71.20;;;;;;4987102;28;20463;-67
2022/08/28 09:36:58;;;;;;;42.10;39.47;;;25.70;69.70;;;;;;4987216;28;20490;-67
2022/08/28 09:39:28;;;;;;;48.30;45.60;;;25.90;68.80;;;;;;4985963;28;20484;-67
2022/08/28 09:44:50;;;;;;;45.03;42.50;;;25.70;69.50;;;;;;4986307;28;21073;-67
2022/08/28 09:47:47;;;;;;;46.57;43.87;;;25.80;68.90;;;;;;4981729;28;20968;-67
2022/08/28 09:50:35;;;;;;;37.90;35.60;;;26.10;67.30;;;;;;4982972;28;20501;-67
2022/08/28 09:53:18;;;;;;;52.07;48.87;;;26.30;66.20;;;;;;4982960;28;20469;-67
2022/08/28 09:58:21;;;;;;;42.40;40.00;;;25.80;68.00;;;;;;5446274;23;20496;-73
2022/08/28 10:00:52;;;;;;;46.87;43.97;;;25.90;68.40;;;;;;4964055;28;20578;-73
2022/08/28 10:03:25;;;;;;;41.77;39.23;;;26.30;67.90;;;;;;4978117;28;20898;-72
2022/08/28 10:06:03;;;;;;;40.43;37.70;;;26.10;67.50;;;;;;4991636;28;20814;-72
2022/08/28 10:08:43;;;;;;;44.20;41.50;;;26.00;67.70;;;;;;4978012;28;20461;-73
2022/08/28 10:11:19;;;;;;;39.10;36.60;;;26.30;67.50;;;;;;4981160;28;20468;-73
2022/08/28 10:13:55;;;;;;;38.30;35.83;;;26.20;66.60;;;;;;4976320;28;20466;-72
2022/08/28 10:16:29;;;;;;;46.33;43.43;;;26.10;67.70;;;;;;4984029;28;20466;-73
2022/08/28 10:19:04;;;;;;;40.00;37.50;;;26.40;67.00;;;;;;4986359;28;20544;-72
2022/08/28 10:21:41;;;;;;;40.00;37.57;;;26.30;66.50;;;;;;4988974;28;20489;-72
2022/08/28 10:24:30;;;;;;;45.07;42.10;;;26.00;67.20;;;;;;4982492;28;20548;-72
2022/08/28 10:27:09;;;;;;;43.13;40.23;;;25.60;68.10;;;;;;4979820;28;20557;-72
2022/08/28 10:29:48;;;;;;;38.53;36.20;;;25.20;69.40;;;;;;4985861;28;20541;-73
2022/08/28 10:32:37;;;;;;;44.87;42.20;;;25.10;69.50;;;;;;4984865;28;20501;-73
2022/08/28 10:35:11;;;;;;;41.27;38.97;;;25.00;69.80;;;;;;4989064;28;20554;-73
2022/08/28 10:37:50;;;;;;;48.23;45.33;;;24.90;70.30;;;;;;4986480;28;20845;-72
2022/08/28 10:40:24;;;;;;;38.10;35.70;;;25.00;69.50;;;;;;4980167;28;20589;-72
2022/08/28 10:42:59;;;;;;;52.80;49.30;;;24.90;69.60;;;;;;4986987;28;20573;-72
2022/08/28 10:45:27;;;;;;;38.90;36.47;;;24.90;69.10;;;;;;4981446;28;20450;-72
2022/08/28 10:47:58;;;;;;;45.03;42.53;;;24.90;69.10;;;;;;4981151;28;20461;-72
2022/08/28 10:50:34;;;;;;;36.93;34.83;;;25.10;69.10;;;;;;4986600;28;20463;-72
2022/08/28 10:53:07;;;;;;;43.37;40.80;;;25.40;68.70;;;;;;4988615;28;21011;-72
2022/08/28 10:55:39;;;;;;;49.03;45.83;;;25.70;66.30;;;;;;4983950;28;20470;-72
2022/08/28 10:58:08;;;;;;;38.80;36.50;;;25.80;65.80;;;;;;4986426;28;20466;-72
2022/08/28 11:00:37;;;;;;;44.03;41.53;;;25.70;65.70;;;;;;4982840;28;20482;-72
2022/08/28 11:03:09;;;;;;;39.90;37.30;;;25.70;66.00;;;;;;4987701;28;20493;-72
2022/08/28 11:05:41;;;;;;;46.83;44.03;;;25.80;65.80;;;;;;4976148;28;20485;-72
2022/08/28 11:08:19;;;;;;;41.43;39.03;;;26.10;66.00;;;;;;4972801;28;20477;-72
2022/08/28 11:10:49;;;;;;;55.63;52.57;;;25.80;66.20;;;;;;4993033;28;21061;-72
2022/08/28 11:13:43;;;;;;;54.03;51.10;;;25.50;66.80;;;;;;4971688;28;20793;-72
2022/08/28 11:16:19;;;;;;;46.40;43.57;;;25.50;66.90;;;;;;4983287;28;20530;-72
2022/08/28 11:19:27;;;;;;;41.97;39.57;;;25.50;66.10;;;;;;4979371;28;20450;-72
2022/08/28 11:21:57;;;;;;;38.87;36.67;;;25.50;65.40;;;;;;4994679;28;20517;-72
2022/08/28 11:24:44;;;;;;;37.40;35.20;;;25.70;64.30;;;;;;4994836;28;20973;-72
2022/08/28 11:27:21;;;;;;;46.77;44.20;;;25.70;66.70;;;;;;4994611;28;20511;-71
2022/08/28 11:30:21;;;;;;;41.90;39.20;;;25.40;67.10;;;;;;4975384;28;20458;-71
2022/08/28 11:33:03;;;;;;;38.27;36.00;;;25.30;67.80;;;;;;4977029;28;20482;-71
2022/08/28 11:35:42;;;;;;;51.30;48.27;;;25.20;68.00;;;;;;4989362;28;20485;-71
2022/08/28 11:38:10;;;;;;;38.43;36.23;;;25.30;67.10;;;;;;4975204;28;20481;-71
2022/08/28 11:41:13;;;;;;;45.93;43.20;;;25.20;67.90;;;;;;4993001;28;20971;-71
2022/08/28 11:43:42;;;;;;;44.77;42.27;;;25.60;66.40;;;;;;4971790;28;20557;-71
2022/08/28 11:46:27;;;;;;;44.30;41.67;;;25.70;65.50;;;;;;4971861;28;20459;-71
2022/08/28 11:48:56;;;;;;;40.10;37.93;;;26.00;64.90;;;;;;4978535;28;20477;-76
2022/08/28 11:51:48;;;;;;;37.10;35.00;;;26.00;64.60;;;;;;4977445;28;20478;-71
2022/08/28 11:54:37;;;;;;;42.80;40.30;;;26.20;64.50;;;;;;4981502;28;20463;-71
2022/08/28 11:57:15;;;;;;;42.17;39.67;;;26.40;63.20;;;;;;4976513;28;20463;-72
2022/08/28 12:00:02;;;;;;;59.13;56.07;;;26.10;63.40;;;;;;4975815;28;20524;-71
2022/08/28 12:05:54;;;;;;;45.30;42.77;;;26.00;63.70;;;;;;4981981;28;20457;-71
2022/08/28 12:15:10;;;;;;;36.47;34.27;;;26.30;62.90;;;;;;4982094;28;20472;-71
2022/08/28 12:17:52;;;;;;;43.87;41.13;;;26.10;63.40;;;;;;4987260;28;20485;-72
2022/08/28 12:20:39;;;;;;;43.20;40.53;;;26.10;62.90;;;;;;4984824;28;20815;-72
2022/08/28 12:23:33;;;;;;;53.00;50.03;;;26.10;62.70;;;;;;4986331;28;20536;-71
2022/08/28 12:26:02;;;;;;;47.40;44.63;;;26.30;62.70;;;;;;4980236;28;20553;-71
2022/08/28 12:28:32;;;;;;;37.13;34.80;;;26.60;61.80;;;;;;4984522;28;20465;-71
2022/08/28 12:34:27;;;;;;;52.87;50.07;;;27.10;60.50;;;;;;4984942;28;20457;-71
2022/08/28 12:36:58;;;;;;;36.90;34.80;;;27.20;60.60;;;;;;4979868;28;21083;-71
2022/08/28 12:39:26;;;;;;;45.50;43.00;;;26.80;61.40;;;;;;4976278;28;20469;-71
2022/08/28 12:41:53;;;;;;;46.10;43.17;;;26.50;61.80;;;;;;4978531;28;20481;-71
2022/08/28 12:44:25;;;;;;;35.53;33.73;;;26.10;62.60;;;;;;4988457;28;20454;-71
2022/08/28 12:46:54;;;;;;;41.80;39.63;;;26.00;61.90;;;;;;4984429;28;20546;-71
2022/08/28 12:49:32;;;;;;;40.67;38.03;;;26.00;62.90;;;;;;4993464;28;20521;-71
2022/08/28 12:52:12;;;;;;;40.03;37.93;;;26.00;65.00;;;;;;4985737;28;20489;-71
2022/08/28 12:54:39;;;;;;;40.43;38.10;;;26.10;64.80;;;;;;4978269;28;20835;-71
2022/08/28 12:57:10;;;;;;;70.20;66.70;;;26.20;64.10;;;;;;4969219;28;20845;-72
2022/08/28 12:59:39;;;;;;;38.80;36.70;;;26.10;64.90;;;;;;4983100;28;20796;-72
2022/08/28 13:02:11;;;;;;;40.27;37.77;;;26.00;64.30;;;;;;4979777;28;20578;-72
2022/08/28 13:04:41;;;;;;;52.87;49.67;;;26.10;63.90;;;;;;4983962;28;21196;-72
2022/08/28 13:07:11;;;;;;;52.90;50.10;;;26.20;63.90;;;;;;4985587;28;20466;-72
2022/08/28 13:09:44;;;;;;;43.03;40.60;;;26.20;63.80;;;;;;4993629;28;20479;-72